createdAt,value
2018-10-12T00:00:05.792Z,0.00
2018-10-12T00:01:05.778Z,0.00
2018-10-12T00:02:05.801Z,0.00
2018-10-12T00:03:05.759Z,0.00
2018-10-12T00:04:05.745Z,0.00
2018-10-12T00:05:05.736Z,0.00
2018-10-12T00:06:05.717Z,0.00
2018-10-12T00:07:05.741Z,0.00
2018-10-12T00:08:05.702Z,0.00
2018-10-12T00:09:05.692Z,0.00
2018-10-12T00:10:05.680Z,0.00
2018-10-12T00:11:05.660Z,0.00
2018-10-12T00:12:05.833Z,0.00
2018-10-12T00:13:05.639Z,0.00
2018-10-12T00:14:05.635Z,0.00
2018-10-12T00:15:05.690Z,0.00
2018-10-12T00:16:05.601Z,0.00
2018-10-12T00:17:05.766Z,0.00
2018-10-12T00:18:05.702Z,0.00
2018-10-12T00:19:05.735Z,0.00
2018-10-12T00:20:06.202Z,0.00
2018-10-12T00:21:05.793Z,0.00
2018-10-12T00:22:05.568Z,0.00
2018-10-12T00:23:05.700Z,0.00
2018-10-12T00:24:05.720Z,0.00
2018-10-12T00:25:05.585Z,0.00
2018-10-12T00:26:05.601Z,0.00
2018-10-12T00:27:05.791Z,0.00
2018-10-12T00:28:06.858Z,0.00
2018-10-12T00:29:06.126Z,0.00
2018-10-12T00:30:06.056Z,0.00
2018-10-12T00:31:06.090Z,0.00
2018-10-12T00:32:05.599Z,0.00
2018-10-12T00:33:05.502Z,0.00
2018-10-12T00:34:05.399Z,0.00
2018-10-12T00:35:05.431Z,0.00
2018-10-12T00:36:05.400Z,0.00
2018-10-12T00:37:05.478Z,0.00
2018-10-12T00:38:05.472Z,0.00
2018-10-12T00:39:05.338Z,0.00
2018-10-12T00:40:05.363Z,0.00
2018-10-12T00:41:05.348Z,0.00
2018-10-12T00:42:05.365Z,0.00
2018-10-12T00:43:05.348Z,0.00
2018-10-12T00:44:05.308Z,0.00
2018-10-12T00:45:05.319Z,0.00
2018-10-12T00:46:05.320Z,0.00
2018-10-12T00:47:05.309Z,0.00
2018-10-12T00:48:05.275Z,0.00
2018-10-12T00:49:05.256Z,0.00
2018-10-12T00:50:05.260Z,0.00
2018-10-12T00:51:05.282Z,0.00
2018-10-12T00:52:05.209Z,0.00
2018-10-12T00:53:05.167Z,0.00
2018-10-12T00:54:05.253Z,0.00
2018-10-12T00:55:05.244Z,0.00
2018-10-12T00:56:05.213Z,0.00
2018-10-12T00:57:05.729Z,0.00
2018-10-12T00:58:05.276Z,0.00
2018-10-12T00:59:05.104Z,0.00
2018-10-12T01:00:05.371Z,0.00
2018-10-12T01:01:05.167Z,0.00
2018-10-12T01:02:05.334Z,0.00
2018-10-12T01:03:05.669Z,0.00
2018-10-12T01:04:06.128Z,0.00
2018-10-12T01:05:05.619Z,0.00
2018-10-12T01:06:07.881Z,0.00
2018-10-12T01:07:06.211Z,0.00
2018-10-12T01:08:05.211Z,0.00
2018-10-12T01:09:05.473Z,0.00
2018-10-12T01:10:05.132Z,0.00
2018-10-12T01:11:05.048Z,0.00
2018-10-12T01:12:04.983Z,0.00
2018-10-12T01:13:05.060Z,0.00
2018-10-12T01:14:06.271Z,0.00
2018-10-12T01:15:04.999Z,0.00
2018-10-12T01:16:04.992Z,0.00
2018-10-12T01:17:04.941Z,0.00
2018-10-12T01:18:04.989Z,0.00
2018-10-12T01:19:05.044Z,0.00
2018-10-12T01:20:04.850Z,0.00
2018-10-12T01:21:04.940Z,0.00
2018-10-12T01:22:04.849Z,0.00
2018-10-12T01:23:04.915Z,0.00
2018-10-12T01:24:05.427Z,0.00
2018-10-12T01:25:05.046Z,0.00
2018-10-12T01:26:05.792Z,0.00
2018-10-12T01:27:05.033Z,0.00
2018-10-12T01:28:04.801Z,0.00
2018-10-12T01:29:04.753Z,0.00
2018-10-12T01:30:04.733Z,0.00
2018-10-12T01:31:04.754Z,0.00
2018-10-12T01:32:05.613Z,0.00
2018-10-12T01:33:05.104Z,0.00
2018-10-12T01:34:04.725Z,0.00
2018-10-12T01:35:04.830Z,0.00
2018-10-12T01:36:05.025Z,0.00
2018-10-12T01:37:04.800Z,0.00
2018-10-12T01:38:04.765Z,0.00
2018-10-12T01:39:04.631Z,0.00
2018-10-12T01:40:04.623Z,0.00
2018-10-12T01:41:04.636Z,0.00
2018-10-12T01:42:04.594Z,0.00
2018-10-12T01:43:04.593Z,0.00
2018-10-12T01:44:04.572Z,0.00
2018-10-12T01:45:04.565Z,0.00
2018-10-12T01:46:04.579Z,0.00
2018-10-12T01:47:04.537Z,0.00
2018-10-12T01:48:04.528Z,0.00
2018-10-12T01:49:04.519Z,0.00
2018-10-12T01:50:04.508Z,0.00
2018-10-12T01:51:04.527Z,0.00
2018-10-12T01:52:04.486Z,0.00
2018-10-12T01:53:04.478Z,0.00
2018-10-12T01:54:04.459Z,0.00
2018-10-12T01:55:04.454Z,0.00
2018-10-12T01:56:04.437Z,0.00
2018-10-12T01:57:04.445Z,0.00
2018-10-12T01:58:04.419Z,0.00
2018-10-12T01:59:04.398Z,0.00
2018-10-12T02:00:04.395Z,0.00
2018-10-12T02:01:04.384Z,0.00
2018-10-12T02:02:04.387Z,0.00
2018-10-12T02:03:04.361Z,0.00
2018-10-12T02:04:04.347Z,0.00
2018-10-12T02:05:04.333Z,0.00
2018-10-12T02:06:04.319Z,0.00
2018-10-12T02:07:04.334Z,0.00
2018-10-12T02:08:04.303Z,0.00
2018-10-12T02:09:04.283Z,0.00
2018-10-12T02:10:04.336Z,0.00
2018-10-12T02:11:04.265Z,0.00
2018-10-12T02:12:04.273Z,0.00
2018-10-12T02:13:04.241Z,0.00
2018-10-12T02:14:04.225Z,0.00
2018-10-12T02:15:04.222Z,0.00
2018-10-12T02:16:04.201Z,0.00
2018-10-12T02:17:04.223Z,0.00
2018-10-12T02:18:04.183Z,0.00
2018-10-12T02:19:04.174Z,0.00
2018-10-12T02:20:04.161Z,0.00
2018-10-12T02:21:04.154Z,0.00
2018-10-12T02:22:04.156Z,0.00
2018-10-12T02:23:04.132Z,0.00
2018-10-12T02:24:04.110Z,0.00
2018-10-12T02:25:04.107Z,0.00
2018-10-12T02:26:04.094Z,0.00
2018-10-12T02:27:04.102Z,0.00
2018-10-12T02:28:04.071Z,0.00
2018-10-12T02:29:04.060Z,0.00
2018-10-12T02:30:04.051Z,0.00
2018-10-12T02:31:04.033Z,0.00
2018-10-12T02:32:04.058Z,0.00
2018-10-12T02:33:04.007Z,0.00
2018-10-12T02:34:04.003Z,0.00
2018-10-12T02:35:03.988Z,0.00
2018-10-12T02:36:03.981Z,0.00
2018-10-12T02:37:03.965Z,0.00
2018-10-12T02:38:03.975Z,0.00
2018-10-12T02:39:03.947Z,0.00
2018-10-12T02:40:03.931Z,0.00
2018-10-12T02:41:03.921Z,0.00
2018-10-12T02:42:03.915Z,0.00
2018-10-12T02:43:03.921Z,0.00
2018-10-12T02:44:03.896Z,0.00
2018-10-12T02:45:03.877Z,0.00
2018-10-12T02:46:03.866Z,0.00
2018-10-12T02:47:03.849Z,0.00
2018-10-12T02:48:03.881Z,0.00
2018-10-12T02:49:03.827Z,0.00
2018-10-12T02:50:03.822Z,0.00
2018-10-12T02:51:03.800Z,0.00
2018-10-12T02:52:03.795Z,0.00
2018-10-12T02:53:03.783Z,0.00
2018-10-12T02:54:03.787Z,0.00
2018-10-12T02:55:03.764Z,0.00
2018-10-12T02:56:03.747Z,0.00
2018-10-12T02:57:03.732Z,0.00
2018-10-12T02:58:03.724Z,0.00
2018-10-12T02:59:03.737Z,0.00
2018-10-12T03:00:03.702Z,0.00
2018-10-12T03:01:03.685Z,0.00
2018-10-12T03:02:03.679Z,0.00
2018-10-12T03:03:03.659Z,0.00
2018-10-12T03:04:03.687Z,0.00
2018-10-12T03:05:03.643Z,0.00
2018-10-12T03:06:03.625Z,0.00
2018-10-12T03:07:03.622Z,0.00
2018-10-12T03:08:03.607Z,0.00
2018-10-12T03:09:03.592Z,0.00
2018-10-12T03:10:03.603Z,0.00
2018-10-12T03:11:03.572Z,0.00
2018-10-12T03:12:03.566Z,0.00
2018-10-12T03:13:03.553Z,0.00
2018-10-12T03:14:03.535Z,0.00
2018-10-12T03:15:03.547Z,0.00
2018-10-12T03:16:03.519Z,0.00
2018-10-12T03:17:03.506Z,0.00
2018-10-12T03:18:03.493Z,0.00
2018-10-12T03:19:03.480Z,0.00
2018-10-12T03:20:03.469Z,0.00
2018-10-12T03:21:03.483Z,0.00
2018-10-12T03:22:03.450Z,0.00
2018-10-12T03:23:03.428Z,0.00
2018-10-12T03:24:03.421Z,0.00
2018-10-12T03:25:03.412Z,0.00
2018-10-12T03:26:03.399Z,0.00
2018-10-12T03:27:03.410Z,0.00
2018-10-12T03:28:03.370Z,0.00
2018-10-12T03:29:03.368Z,0.00
2018-10-12T03:30:03.365Z,0.00
2018-10-12T03:31:03.345Z,0.00
2018-10-12T03:32:03.346Z,0.00
2018-10-12T03:33:03.316Z,0.00
2018-10-12T03:34:03.308Z,0.00
2018-10-12T03:35:03.296Z,0.00
2018-10-12T03:36:03.282Z,0.00
2018-10-12T03:37:03.300Z,0.00
2018-10-12T03:38:03.262Z,0.00
2018-10-12T03:39:03.247Z,0.00
2018-10-12T03:40:03.239Z,0.00
2018-10-12T03:41:03.222Z,0.00
2018-10-12T03:42:03.235Z,0.00
2018-10-12T03:43:03.210Z,0.00
2018-10-12T03:44:03.189Z,0.00
2018-10-12T03:45:03.182Z,0.00
2018-10-12T03:46:03.172Z,0.00
2018-10-12T03:47:03.185Z,0.00
2018-10-12T03:48:03.149Z,0.00
2018-10-12T03:49:03.128Z,0.00
2018-10-12T03:50:03.124Z,0.00
2018-10-12T03:51:03.112Z,0.00
2018-10-12T03:52:03.203Z,0.00
2018-10-12T03:53:03.092Z,0.00
2018-10-12T03:54:03.082Z,0.00
2018-10-12T03:55:03.061Z,0.00
2018-10-12T03:56:03.053Z,0.00
2018-10-12T03:57:03.067Z,0.00
2018-10-12T03:58:03.026Z,0.00
2018-10-12T03:59:03.024Z,0.00
2018-10-12T04:00:03.010Z,0.00
2018-10-12T04:01:03.001Z,0.00
2018-10-12T04:02:03.003Z,0.00
2018-10-12T04:03:02.974Z,0.00
2018-10-12T04:04:02.959Z,0.00
2018-10-12T04:05:02.954Z,0.00
2018-10-12T04:06:02.941Z,0.00
2018-10-12T04:07:02.952Z,0.00
2018-10-12T04:08:02.919Z,0.00
2018-10-12T04:09:02.902Z,0.00
2018-10-12T04:10:02.890Z,0.00
2018-10-12T04:11:02.887Z,0.00
2018-10-12T04:12:02.898Z,0.00
2018-10-12T04:13:02.859Z,0.00
2018-10-12T04:14:02.848Z,0.00
2018-10-12T04:15:02.838Z,0.00
2018-10-12T04:16:02.831Z,0.00
2018-10-12T04:17:02.832Z,0.00
2018-10-12T04:18:02.808Z,0.00
2018-10-12T04:19:02.786Z,0.00
2018-10-12T04:20:02.786Z,0.00
2018-10-12T04:21:02.770Z,0.00
2018-10-12T04:22:02.783Z,0.00
2018-10-12T04:23:02.753Z,0.00
2018-10-12T04:24:02.737Z,0.00
2018-10-12T04:25:02.722Z,0.00
2018-10-12T04:26:02.716Z,0.00
2018-10-12T04:27:02.721Z,0.00
2018-10-12T04:28:02.688Z,0.00
2018-10-12T04:29:02.680Z,0.00
2018-10-12T04:30:02.671Z,0.00
2018-10-12T04:31:02.653Z,0.00
2018-10-12T04:32:02.665Z,0.00
2018-10-12T04:33:02.637Z,0.00
2018-10-12T04:34:02.615Z,0.00
2018-10-12T04:35:02.610Z,0.00
2018-10-12T04:36:02.598Z,0.00
2018-10-12T04:37:02.614Z,0.00
2018-10-12T04:38:02.580Z,0.00
2018-10-12T04:39:02.560Z,0.00
2018-10-12T04:40:02.561Z,0.00
2018-10-12T04:41:02.539Z,0.00
2018-10-12T04:42:02.556Z,0.00
2018-10-12T04:43:02.519Z,0.00
2018-10-12T04:44:02.511Z,0.00
2018-10-12T04:45:02.492Z,0.00
2018-10-12T04:46:02.480Z,0.00
2018-10-12T04:47:02.482Z,0.00
2018-10-12T04:48:02.484Z,0.00
2018-10-12T04:49:02.448Z,0.00
2018-10-12T04:50:02.435Z,0.00
2018-10-12T04:51:02.431Z,0.00
2018-10-12T04:52:02.409Z,0.00
2018-10-12T04:53:02.430Z,0.00
2018-10-12T04:54:02.391Z,0.00
2018-10-12T04:55:02.381Z,0.00
2018-10-12T04:56:02.367Z,0.00
2018-10-12T04:57:02.359Z,0.00
2018-10-12T04:58:02.362Z,0.00
2018-10-12T04:59:02.338Z,0.00
2018-10-12T05:00:02.320Z,0.00
2018-10-12T05:01:02.321Z,0.00
2018-10-12T05:02:02.297Z,0.00
2018-10-12T05:03:02.309Z,0.00
2018-10-12T05:04:02.274Z,0.00
2018-10-12T05:05:02.265Z,0.00
2018-10-12T05:06:02.257Z,0.00
2018-10-12T05:07:02.235Z,0.00
2018-10-12T05:08:02.256Z,0.00
2018-10-12T05:09:02.211Z,0.00
2018-10-12T05:10:02.206Z,0.00
2018-10-12T05:11:02.195Z,0.00
2018-10-12T05:12:02.186Z,0.00
2018-10-12T05:13:02.194Z,4.00
2018-10-12T05:14:02.156Z,0.00
2018-10-12T05:15:02.150Z,0.00
2018-10-12T05:16:02.132Z,4.00
2018-10-12T05:17:02.125Z,0.00
2018-10-12T05:18:02.131Z,4.00
2018-10-12T05:19:02.103Z,4.00
2018-10-12T05:20:02.084Z,8.00
2018-10-12T05:21:02.082Z,8.00
2018-10-12T05:22:02.161Z,8.00
2018-10-12T05:23:02.074Z,12.00
2018-10-12T05:24:02.037Z,12.00
2018-10-12T05:25:02.036Z,16.00
2018-10-12T05:26:02.024Z,16.00
2018-10-12T05:27:02.007Z,24.00
2018-10-12T05:28:02.038Z,28.00
2018-10-12T05:29:01.992Z,32.00
2018-10-12T05:30:02.054Z,36.00
2018-10-12T05:31:01.959Z,44.00
2018-10-12T05:32:01.944Z,52.00
2018-10-12T05:33:01.961Z,60.00
2018-10-12T05:34:01.931Z,72.00
2018-10-12T05:35:01.917Z,84.00
2018-10-12T05:36:01.929Z,100.00
2018-10-12T05:37:01.892Z,120.00
2018-10-12T05:38:01.906Z,140.00
2018-10-12T05:39:01.868Z,160.00
2018-10-12T05:40:01.866Z,184.00
2018-10-12T05:41:01.838Z,212.00
2018-10-12T05:42:01.832Z,232.00
2018-10-12T05:43:01.846Z,260.00
2018-10-12T05:44:01.808Z,292.00
2018-10-12T05:45:01.798Z,324.00
2018-10-12T05:46:01.784Z,356.00
2018-10-12T05:47:01.777Z,400.00
2018-10-12T05:48:01.787Z,444.00
2018-10-12T05:49:01.779Z,488.00
2018-10-12T05:50:01.731Z,516.00
2018-10-12T05:51:01.729Z,592.00
2018-10-12T05:52:01.714Z,652.00
2018-10-12T05:53:01.722Z,712.00
2018-10-12T05:54:01.685Z,728.00
2018-10-12T05:55:01.684Z,844.00
2018-10-12T05:56:01.669Z,916.00
2018-10-12T05:57:01.653Z,988.00
2018-10-12T05:58:01.663Z,1060.00
2018-10-12T05:59:01.639Z,896.00
2018-10-12T06:00:01.633Z,1212.00
2018-10-12T06:01:01.603Z,1288.00
2018-10-12T06:02:01.593Z,1372.00
2018-10-12T06:03:01.613Z,1464.00
2018-10-12T06:04:01.589Z,1560.00
2018-10-12T06:05:01.569Z,1660.00
2018-10-12T06:06:01.548Z,1748.00
2018-10-12T06:07:01.541Z,1824.00
2018-10-12T06:08:01.549Z,1892.00
2018-10-12T06:09:01.517Z,1868.00
2018-10-12T06:10:01.549Z,2008.00
2018-10-12T06:11:01.494Z,2052.00
2018-10-12T06:12:01.484Z,2112.00
2018-10-12T06:13:01.495Z,2184.00
2018-10-12T06:14:01.456Z,2264.00
2018-10-12T06:15:01.456Z,2344.00
2018-10-12T06:16:01.490Z,2432.00
2018-10-12T06:17:01.430Z,2496.00
2018-10-12T06:18:01.432Z,2560.00
2018-10-12T06:19:01.401Z,2596.00
2018-10-12T06:20:01.958Z,2600.00
2018-10-12T06:21:01.384Z,2604.00
2018-10-12T06:22:01.359Z,2628.00
2018-10-12T06:23:01.380Z,2656.00
2018-10-12T06:24:01.337Z,2684.00
2018-10-12T06:25:01.335Z,2728.00
2018-10-12T06:26:01.315Z,2764.00
2018-10-12T06:27:01.313Z,2816.00
2018-10-12T06:28:01.316Z,2844.00
2018-10-12T06:29:01.292Z,2888.00
2018-10-12T06:30:01.278Z,2932.00
2018-10-12T06:31:01.266Z,2976.00
2018-10-12T06:32:01.257Z,3016.00
2018-10-12T06:33:01.331Z,3068.00
2018-10-12T06:34:01.232Z,3120.00
2018-10-12T06:35:01.217Z,3188.00
2018-10-12T06:36:01.203Z,3272.00
2018-10-12T06:37:01.198Z,3384.00
2018-10-12T06:38:01.210Z,3484.00
2018-10-12T06:39:01.167Z,3580.00
2018-10-12T06:40:01.159Z,3540.00
2018-10-12T06:41:01.294Z,3884.00
2018-10-12T06:42:01.141Z,4008.00
2018-10-12T06:43:01.145Z,4112.00
2018-10-12T06:44:01.111Z,4208.00
2018-10-12T06:45:01.104Z,4312.00
2018-10-12T06:46:01.088Z,4440.00
2018-10-12T06:47:01.083Z,4552.00
2018-10-12T06:48:01.084Z,4640.00
2018-10-12T06:49:01.055Z,4688.00
2018-10-12T06:50:01.043Z,4784.00
2018-10-12T06:51:01.035Z,4900.00
2018-10-12T06:52:01.027Z,4952.00
2018-10-12T06:53:01.028Z,5012.00
2018-10-12T06:54:01.040Z,5076.00
2018-10-12T06:55:00.991Z,5116.00
2018-10-12T06:56:00.977Z,5184.00
2018-10-12T06:57:00.962Z,5252.00
2018-10-12T06:58:00.980Z,5268.00
2018-10-12T06:59:00.945Z,5348.00
2018-10-12T07:00:00.960Z,5556.00
2018-10-12T07:01:00.922Z,5660.00
2018-10-12T07:02:00.906Z,5748.00
2018-10-12T07:03:01.005Z,5832.00
2018-10-12T07:04:00.889Z,5868.00
2018-10-12T07:05:00.939Z,5788.00
2018-10-12T07:06:00.863Z,5884.00
2018-10-12T07:07:00.848Z,6112.00
2018-10-12T07:08:00.855Z,7064.00
2018-10-12T07:09:00.833Z,7080.00
2018-10-12T07:10:00.820Z,7288.00
2018-10-12T07:11:00.800Z,10848.00
2018-10-12T07:12:00.840Z,10244.00
2018-10-12T07:13:00.805Z,8164.00
2018-10-12T07:14:00.824Z,7088.00
2018-10-12T07:15:00.753Z,7064.00
2018-10-12T07:16:00.747Z,6996.00
2018-10-12T07:17:00.736Z,7152.00
2018-10-12T07:18:00.747Z,7688.00
2018-10-12T07:19:00.710Z,8992.00
2018-10-12T07:20:00.700Z,14836.00
2018-10-12T07:21:00.694Z,19520.00
2018-10-12T07:22:00.680Z,24544.00
2018-10-12T07:23:00.681Z,31840.00
2018-10-12T07:24:00.656Z,28768.00
2018-10-12T07:25:00.636Z,28736.00
2018-10-12T07:26:00.689Z,34688.00
2018-10-12T07:27:00.624Z,42528.00
2018-10-12T07:28:00.624Z,44256.00
2018-10-12T07:29:00.599Z,45152.00
2018-10-12T07:30:00.610Z,46432.00
2018-10-12T07:31:00.570Z,57024.00
2018-10-12T07:32:00.561Z,65856.00
2018-10-12T07:33:00.571Z,67456.00
2018-10-12T07:34:00.535Z,52096.00
2018-10-12T07:35:00.522Z,39680.00
2018-10-12T07:36:01.076Z,34624.00
2018-10-12T07:37:00.522Z,31168.00
2018-10-12T07:38:00.519Z,29472.00
2018-10-12T07:39:00.478Z,27776.00
2018-10-12T07:40:00.502Z,24544.00
2018-10-12T07:41:00.465Z,27328.00
2018-10-12T07:42:00.473Z,25888.00
2018-10-12T07:43:00.475Z,26976.00
2018-10-12T07:44:00.465Z,27712.00
2018-10-12T07:45:00.452Z,28416.00
2018-10-12T07:46:00.440Z,29152.00
2018-10-12T07:47:00.388Z,28416.00
2018-10-12T07:48:00.481Z,28544.00
2018-10-12T07:49:00.404Z,29312.00
2018-10-12T07:50:00.388Z,28896.00
2018-10-12T07:51:00.382Z,29728.00
2018-10-12T07:52:00.340Z,29856.00
2018-10-12T07:53:00.414Z,29056.00
2018-10-12T07:54:00.348Z,29568.00
2018-10-12T07:55:00.337Z,30048.00
2018-10-12T07:56:00.293Z,30336.00
2018-10-12T07:57:00.275Z,30880.00
2018-10-12T07:58:00.346Z,30176.00
2018-10-12T07:59:00.288Z,29216.00
2018-10-12T08:00:00.309Z,25280.00
2018-10-12T08:01:00.269Z,23296.00
2018-10-12T08:02:00.254Z,23616.00
2018-10-12T08:03:00.265Z,27744.00
2018-10-12T08:04:00.195Z,29888.00
2018-10-12T08:05:00.219Z,31552.00
2018-10-12T08:06:00.186Z,30880.00
2018-10-12T08:07:00.163Z,29088.00
2018-10-12T08:08:00.183Z,31008.00
2018-10-12T08:09:00.146Z,31968.00
2018-10-12T08:10:00.135Z,35072.00
2018-10-12T08:11:00.121Z,39008.00
2018-10-12T08:12:00.108Z,40544.00
2018-10-12T08:13:00.129Z,38336.00
2018-10-12T08:14:00.227Z,30784.00
2018-10-12T08:15:00.074Z,15476.00
2018-10-12T08:16:00.065Z,13572.00
2018-10-12T08:17:00.062Z,13036.00
2018-10-12T08:18:00.071Z,12796.00
2018-10-12T08:19:00.034Z,12956.00
2018-10-12T08:20:00.026Z,20672.00
2018-10-12T08:21:00.053Z,17600.00
2018-10-12T08:21:59.994Z,15308.00
2018-10-12T08:23:00.015Z,26432.00
2018-10-12T08:23:59.972Z,27136.00
2018-10-12T08:24:59.963Z,29984.00
2018-10-12T08:25:59.958Z,29088.00
2018-10-12T08:27:00.002Z,29952.00
2018-10-12T08:27:59.959Z,30208.00
2018-10-12T08:28:59.916Z,31904.00
2018-10-12T08:29:59.906Z,40160.00
2018-10-12T08:30:59.902Z,52288.00
2018-10-12T08:31:59.882Z,58816.00
2018-10-12T08:32:59.911Z,58816.00
2018-10-12T08:33:59.868Z,62528.00
2018-10-12T08:34:59.858Z,65824.00
2018-10-12T08:35:59.852Z,60288.00
2018-10-12T08:36:59.834Z,65504.00
2018-10-12T08:37:59.824Z,71264.00
2018-10-12T08:38:59.826Z,70208.00
2018-10-12T08:39:59.795Z,75712.00
2018-10-12T08:40:59.786Z,73792.00
2018-10-12T08:41:59.776Z,75040.00
2018-10-12T08:42:59.762Z,69344.00
2018-10-12T08:43:59.769Z,70592.00
2018-10-12T08:44:59.747Z,69824.00
2018-10-12T08:45:59.733Z,76128.00
2018-10-12T08:46:59.722Z,77856.00
2018-10-12T08:47:59.714Z,77760.00
2018-10-12T08:48:59.715Z,78176.00
2018-10-12T08:49:59.692Z,79616.00
2018-10-12T08:50:59.678Z,76640.00
2018-10-12T08:51:59.669Z,78784.00
2018-10-12T08:52:59.651Z,22720.00
2018-10-12T08:53:59.682Z,77664.00
2018-10-12T08:54:59.631Z,25280.00
2018-10-12T08:55:59.625Z,81824.00
2018-10-12T08:56:59.618Z,81728.00
2018-10-12T08:57:59.598Z,83648.00
2018-10-12T08:58:59.613Z,87136.00
2018-10-12T08:59:59.584Z,86176.00
2018-10-12T09:00:59.563Z,85344.00
2018-10-12T09:01:59.553Z,33184.00
2018-10-12T09:02:59.749Z,40736.00
2018-10-12T09:03:59.556Z,66592.00
2018-10-12T09:04:59.522Z,27616.00
2018-10-12T09:05:59.515Z,89344.00
2018-10-12T09:06:59.500Z,93472.00
2018-10-12T09:07:59.494Z,96288.00
2018-10-12T09:08:59.501Z,26880.00
2018-10-12T09:09:59.541Z,25376.00
2018-10-12T09:10:59.453Z,25120.00
2018-10-12T09:11:59.451Z,24736.00
2018-10-12T09:12:59.431Z,24064.00
2018-10-12T09:13:59.441Z,24608.00
2018-10-12T09:14:59.418Z,29280.00
2018-10-12T09:15:59.405Z,31840.00
2018-10-12T09:16:59.389Z,81120.00
2018-10-12T09:17:59.380Z,28256.00
2018-10-12T09:18:59.392Z,47200.00
2018-10-12T09:19:59.363Z,72352.00
2018-10-12T09:20:59.343Z,84256.00
2018-10-12T09:21:59.342Z,83296.00
2018-10-12T09:22:59.325Z,87712.00
2018-10-12T09:23:59.342Z,92288.00
2018-10-12T09:24:59.312Z,94144.00
2018-10-12T09:25:59.288Z,29792.00
2018-10-12T09:26:59.280Z,96192.00
2018-10-12T09:27:59.266Z,91712.00
2018-10-12T09:28:59.288Z,88640.00
2018-10-12T09:29:59.252Z,87008.00
2018-10-12T09:30:59.231Z,88320.00
2018-10-12T09:31:59.232Z,88160.00
2018-10-12T09:32:59.212Z,89824.00
2018-10-12T09:33:59.227Z,91872.00
2018-10-12T09:34:59.192Z,90816.00
2018-10-12T09:35:59.184Z,90176.00
2018-10-12T09:36:59.227Z,92928.00
2018-10-12T09:37:59.158Z,94880.00
2018-10-12T09:38:59.171Z,50112.00
2018-10-12T09:39:59.142Z,29984.00
2018-10-12T09:40:59.135Z,94208.00
2018-10-12T09:41:59.117Z,57120.00
2018-10-12T09:42:59.128Z,95232.00
2018-10-12T09:43:59.122Z,38336.00
2018-10-12T09:44:59.090Z,93568.00
2018-10-12T09:45:59.081Z,88960.00
2018-10-12T09:46:59.072Z,90656.00
2018-10-12T09:47:59.051Z,90592.00
2018-10-12T09:48:59.076Z,93248.00
2018-10-12T09:49:59.035Z,97312.00
2018-10-12T09:50:59.025Z,79808.00
2018-10-12T09:51:59.013Z,102944.00
2018-10-12T09:52:59.005Z,106752.00
2018-10-12T09:53:59.013Z,111264.00
2018-10-12T09:54:58.978Z,73728.00
2018-10-12T09:55:59.107Z,30624.00
2018-10-12T09:56:58.958Z,32096.00
2018-10-12T09:57:58.947Z,33088.00
2018-10-12T09:58:58.966Z,75360.00
2018-10-12T09:59:58.933Z,42464.00
2018-10-12T10:00:58.916Z,36416.00
2018-10-12T10:01:59.009Z,34880.00
2018-10-12T10:02:58.891Z,72384.00
2018-10-12T10:03:58.912Z,41696.00
2018-10-12T10:04:58.873Z,31744.00
2018-10-12T10:05:58.868Z,29984.00
2018-10-12T10:06:58.851Z,28832.00
2018-10-12T10:07:58.976Z,24544.00
2018-10-12T10:08:58.866Z,23232.00
2018-10-12T10:09:58.823Z,21696.00
2018-10-12T10:10:58.809Z,19648.00
2018-10-12T10:11:58.793Z,21280.00
2018-10-12T10:12:58.785Z,99872.00
2018-10-12T10:13:58.849Z,29376.00
2018-10-12T10:14:58.760Z,101664.00
2018-10-12T10:15:58.759Z,31200.00
2018-10-12T10:16:58.739Z,27936.00
2018-10-12T10:17:58.735Z,102528.00
2018-10-12T10:18:58.741Z,25984.00
2018-10-12T10:19:58.707Z,8932.00
2018-10-12T10:20:58.706Z,101024.00
2018-10-12T10:21:58.693Z,76896.00
2018-10-12T10:22:58.671Z,38848.00
2018-10-12T10:23:58.685Z,80704.00
2018-10-12T10:24:58.693Z,94976.00
2018-10-12T10:25:58.648Z,73888.00
2018-10-12T10:26:58.629Z,76416.00
2018-10-12T10:27:58.627Z,30720.00
2018-10-12T10:28:58.634Z,84768.00
2018-10-12T10:29:58.596Z,18432.00
2018-10-12T10:30:58.588Z,18432.00
2018-10-12T10:31:58.575Z,71040.00
2018-10-12T10:32:58.572Z,96960.00
2018-10-12T10:33:58.580Z,59040.00
2018-10-12T10:34:58.543Z,69088.00
2018-10-12T10:35:58.542Z,45472.00
2018-10-12T10:36:58.526Z,52832.00
2018-10-12T10:37:58.516Z,90624.00
2018-10-12T10:38:58.583Z,68544.00
2018-10-12T10:39:58.486Z,98240.00
2018-10-12T10:40:58.485Z,98528.00
2018-10-12T10:41:58.466Z,95168.00
2018-10-12T10:42:58.456Z,96544.00
2018-10-12T10:43:58.450Z,96288.00
2018-10-12T10:44:58.460Z,95712.00
2018-10-12T10:45:58.424Z,95328.00
2018-10-12T10:46:58.416Z,93088.00
2018-10-12T10:47:58.409Z,91168.00
2018-10-12T10:48:58.394Z,90656.00
2018-10-12T10:49:58.406Z,94400.00
2018-10-12T10:50:58.370Z,93920.00
2018-10-12T10:51:58.363Z,96960.00
2018-10-12T10:52:58.350Z,95360.00
2018-10-12T10:53:58.344Z,95456.00
2018-10-12T10:54:58.347Z,96640.00
2018-10-12T10:55:58.323Z,98112.00
2018-10-12T10:56:58.304Z,98080.00
2018-10-12T10:57:58.295Z,98912.00
2018-10-12T10:58:58.283Z,95616.00
2018-10-12T10:59:58.297Z,93088.00
2018-10-12T11:00:58.402Z,91936.00
2018-10-12T11:01:58.252Z,89664.00
2018-10-12T11:02:58.250Z,90784.00
2018-10-12T11:03:58.237Z,93504.00
2018-10-12T11:04:58.245Z,93600.00
2018-10-12T11:05:58.216Z,96320.00
2018-10-12T11:06:58.206Z,96000.00
2018-10-12T11:07:58.198Z,93728.00
2018-10-12T11:08:58.177Z,95360.00
2018-10-12T11:09:58.192Z,93984.00
2018-10-12T11:10:58.158Z,95136.00
2018-10-12T11:11:58.145Z,94240.00
2018-10-12T11:12:58.216Z,96032.00
2018-10-12T11:13:58.125Z,97216.00
2018-10-12T11:14:58.144Z,96960.00
2018-10-12T11:15:58.102Z,96384.00
2018-10-12T11:16:58.216Z,95168.00
2018-10-12T11:17:58.087Z,95040.00
2018-10-12T11:18:58.070Z,94176.00
2018-10-12T11:19:58.091Z,93504.00
2018-10-12T11:20:58.049Z,91296.00
2018-10-12T11:21:58.040Z,94336.00
2018-10-12T11:22:58.037Z,89536.00
2018-10-12T11:23:58.017Z,89280.00
2018-10-12T11:24:58.037Z,84704.00
2018-10-12T11:25:58.005Z,88384.00
2018-10-12T11:26:58.098Z,91072.00
2018-10-12T11:27:57.985Z,83680.00
2018-10-12T11:28:57.963Z,88416.00
2018-10-12T11:29:57.991Z,90816.00
2018-10-12T11:30:57.943Z,84544.00
2018-10-12T11:31:57.945Z,85216.00
2018-10-12T11:32:58.094Z,85408.00
2018-10-12T11:33:57.919Z,87488.00
2018-10-12T11:34:57.932Z,89696.00
2018-10-12T11:35:57.890Z,92960.00
2018-10-12T11:36:57.890Z,93216.00
2018-10-12T11:37:57.873Z,94432.00
2018-10-12T11:38:57.864Z,94528.00
2018-10-12T11:39:57.877Z,89408.00
2018-10-12T11:40:57.844Z,95968.00
2018-10-12T11:41:57.994Z,93216.00
2018-10-12T11:42:57.825Z,87840.00
2018-10-12T11:43:57.811Z,86176.00
2018-10-12T11:44:57.836Z,84576.00
2018-10-12T11:45:57.791Z,86400.00
2018-10-12T11:46:57.777Z,86272.00
2018-10-12T11:47:57.763Z,85120.00
2018-10-12T11:48:57.761Z,82848.00
2018-10-12T11:49:57.774Z,83328.00
2018-10-12T11:50:57.732Z,85088.00
2018-10-12T11:51:57.777Z,83072.00
2018-10-12T11:52:57.718Z,85920.00
2018-10-12T11:53:57.699Z,84064.00
2018-10-12T11:54:57.719Z,83136.00
2018-10-12T11:55:57.679Z,79872.00
2018-10-12T11:56:57.677Z,79072.00
2018-10-12T11:57:57.661Z,83616.00
2018-10-12T11:58:57.652Z,86976.00
2018-10-12T11:59:57.668Z,85952.00
2018-10-12T12:00:57.655Z,84640.00
2018-10-12T12:01:57.625Z,80832.00
2018-10-12T12:02:57.607Z,79296.00
2018-10-12T12:03:57.603Z,77696.00
2018-10-12T12:04:57.610Z,78560.00
2018-10-12T12:05:57.581Z,78688.00
2018-10-12T12:06:57.569Z,79264.00
2018-10-12T12:07:57.559Z,72896.00
2018-10-12T12:08:57.546Z,72992.00
2018-10-12T12:09:57.557Z,72960.00
2018-10-12T12:10:57.527Z,69888.00
2018-10-12T12:11:57.519Z,61920.00
2018-10-12T12:12:57.507Z,58688.00
2018-10-12T12:13:57.597Z,56128.00
2018-10-12T12:14:57.504Z,50944.00
2018-10-12T12:15:57.530Z,54368.00
2018-10-12T12:16:57.462Z,56544.00
2018-10-12T12:17:57.448Z,55936.00
2018-10-12T12:18:57.446Z,53792.00
2018-10-12T12:19:57.448Z,49984.00
2018-10-12T12:20:57.426Z,43104.00
2018-10-12T12:21:57.408Z,42496.00
2018-10-12T12:22:57.395Z,42944.00
2018-10-12T12:23:57.392Z,46496.00
2018-10-12T12:24:57.398Z,52544.00
2018-10-12T12:25:57.369Z,53568.00
2018-10-12T12:26:57.351Z,55296.00